createdAt,value
2022-09-03T00:01:16.657Z,21.00
2022-09-03T00:03:47.684Z,21.00
2022-09-03T00:06:55.644Z,21.10
2022-09-03T00:09:27.097Z,21.10
2022-09-03T00:12:05.699Z,21.10
2022-09-03T00:14:38.945Z,21.10
2022-09-03T00:17:11.059Z,21.10
2022-09-03T00:19:46.943Z,21.00
2022-09-03T00:22:19.116Z,21.10
2022-09-03T00:24:48.807Z,20.80
2022-09-03T00:27:18.712Z,20.70
2022-09-03T00:29:50.747Z,20.70
2022-09-03T00:32:22.677Z,20.60
2022-09-03T00:34:56.517Z,20.50
2022-09-03T00:37:25.340Z,20.50
2022-09-03T00:39:55.627Z,20.40
2022-09-03T00:42:39.960Z,20.40
2022-09-03T00:45:23.560Z,20.50
2022-09-03T00:48:06.409Z,20.50
2022-09-03T00:50:46.554Z,20.70
2022-09-03T00:53:27.021Z,20.60
2022-09-03T00:56:00.898Z,20.40
2022-09-03T00:59:01.954Z,20.40
2022-09-03T01:01:36.385Z,20.20
2022-09-03T01:04:21.230Z,20.20
2022-09-03T01:06:58.788Z,20.20
2022-09-03T01:09:41.381Z,20.30
2022-09-03T01:12:17.656Z,20.20
2022-09-03T01:15:00.053Z,20.10
2022-09-03T01:17:42.780Z,20.10
2022-09-03T01:20:25.983Z,19.80
2022-09-03T01:23:30.152Z,20.10
2022-09-03T01:26:15.077Z,19.90
2022-09-03T01:28:56.647Z,19.90
2022-09-03T01:31:35.360Z,19.70
2022-09-03T01:34:14.898Z,19.80
2022-09-03T01:36:52.484Z,19.60
2022-09-03T01:39:27.292Z,19.50
2022-09-03T01:42:20.726Z,19.50
2022-09-03T01:45:07.582Z,19.40
2022-09-03T01:47:50.003Z,19.40
2022-09-03T01:50:34.672Z,19.50
2022-09-03T01:53:10.505Z,19.60
2022-09-03T01:55:55.007Z,19.70
2022-09-03T01:58:29.329Z,19.70
2022-09-03T02:01:02.624Z,19.60
2022-09-03T02:03:36.160Z,19.50
2022-09-03T02:06:09.093Z,19.70
2022-09-03T02:08:36.284Z,19.60
2022-09-03T02:11:06.110Z,19.60
2022-09-03T02:13:38.680Z,19.50
2022-09-03T02:16:13.217Z,19.60
2022-09-03T02:18:44.547Z,19.80
2022-09-03T02:21:13.349Z,19.60
2022-09-03T02:23:42.175Z,19.70
2022-09-03T02:26:12.028Z,19.60
2022-09-03T02:28:39.240Z,19.70
2022-09-03T02:31:07.988Z,19.60
2022-09-03T02:33:38.188Z,19.70
2022-09-03T02:36:07.415Z,19.70
2022-09-03T02:38:34.829Z,19.70
2022-09-03T02:41:01.943Z,19.80
2022-09-03T02:43:37.668Z,19.80
2022-09-03T02:46:10.131Z,19.80
2022-09-03T02:48:37.549Z,19.80
2022-09-03T02:51:10.201Z,20.00
2022-09-03T02:53:42.286Z,19.90
2022-09-03T02:56:09.421Z,19.80
2022-09-03T02:58:36.685Z,19.70
2022-09-03T03:01:04.476Z,19.80
2022-09-03T03:03:33.331Z,19.70
2022-09-03T03:06:03.078Z,19.90
2022-09-03T03:08:32.243Z,19.80
2022-09-03T03:11:00.793Z,19.70
2022-09-03T03:13:29.218Z,19.80
2022-09-03T03:15:57.475Z,19.60
2022-09-03T03:18:24.800Z,19.60
2022-09-03T03:20:54.297Z,19.50
2022-09-03T03:23:21.668Z,19.70
2022-09-03T03:25:48.803Z,19.60
2022-09-03T03:28:16.021Z,19.60
2022-09-03T03:30:43.218Z,19.60
2022-09-03T03:33:10.563Z,19.60
2022-09-03T03:35:37.779Z,19.60
2022-09-03T03:38:06.240Z,19.50
2022-09-03T03:40:33.933Z,19.40
2022-09-03T03:43:01.006Z,19.50
2022-09-03T03:45:28.145Z,19.70
2022-09-03T03:47:58.180Z,19.80
2022-09-03T03:50:26.234Z,19.60
2022-09-03T03:52:53.610Z,19.60
2022-09-03T03:55:22.805Z,19.60
2022-09-03T03:57:54.180Z,19.20
2022-09-03T04:00:21.481Z,19.50
2022-09-03T04:02:52.636Z,19.40
2022-09-03T04:05:23.182Z,19.30
2022-09-03T04:07:51.146Z,19.10
2022-09-03T04:10:18.288Z,19.00
2022-09-03T04:12:46.743Z,18.90
2022-09-03T04:15:13.825Z,19.00
2022-09-03T04:17:40.878Z,19.00
2022-09-03T04:20:08.540Z,19.00
2022-09-03T04:22:35.644Z,19.10
2022-09-03T04:25:02.745Z,19.10
2022-09-03T04:27:29.961Z,19.20
2022-09-03T04:29:58.502Z,19.30
2022-09-03T04:32:43.906Z,19.00
2022-09-03T04:35:11.513Z,19.00
2022-09-03T04:37:38.652Z,18.90
2022-09-03T04:40:06.823Z,18.80
2022-09-03T04:42:33.921Z,18.90
2022-09-03T04:45:03.329Z,18.90
2022-09-03T04:47:30.491Z,18.70
2022-09-03T04:49:57.678Z,18.90
2022-09-03T04:52:24.972Z,19.00
2022-09-03T04:54:52.057Z,18.90
2022-09-03T04:57:19.140Z,19.00
2022-09-03T04:59:46.256Z,19.00
2022-09-03T05:02:15.625Z,19.00
2022-09-03T05:04:43.149Z,19.00
2022-09-03T05:07:10.257Z,19.10
2022-09-03T05:09:37.367Z,18.90
2022-09-03T05:12:04.752Z,18.90
2022-09-03T05:14:33.052Z,19.10
2022-09-03T05:17:00.292Z,19.30
2022-09-03T05:19:29.205Z,19.30
2022-09-03T05:21:56.265Z,19.50
2022-09-03T05:24:24.018Z,19.40
2022-09-03T05:26:51.123Z,19.50
2022-09-03T05:29:19.954Z,19.40
2022-09-03T05:31:47.133Z,19.40
2022-09-03T05:34:16.377Z,19.70
2022-09-03T05:36:47.078Z,20.10
2022-09-03T05:39:14.384Z,20.40
2022-09-03T05:41:41.602Z,21.00
2022-09-03T05:44:08.740Z,21.40
2022-09-03T05:46:37.498Z,21.60
2022-09-03T05:49:06.006Z,21.90
2022-09-03T05:51:34.707Z,22.50
2022-09-03T05:54:03.856Z,22.80
2022-09-03T05:56:32.650Z,22.90
2022-09-03T05:59:01.927Z,23.10
2022-09-03T06:01:31.861Z,23.00
2022-09-03T06:04:01.470Z,22.80
2022-09-03T06:06:30.064Z,22.90
2022-09-03T06:08:59.422Z,23.30
2022-09-03T06:11:29.560Z,23.70
2022-09-03T06:13:58.064Z,23.80
2022-09-03T06:16:30.576Z,24.70
2022-09-03T06:18:59.779Z,25.20
2022-09-03T06:21:27.441Z,25.40
2022-09-03T06:24:00.003Z,25.80
2022-09-03T06:26:29.822Z,26.60
2022-09-03T06:28:57.580Z,26.80
2022-09-03T06:31:25.631Z,27.10
2022-09-03T06:33:54.595Z,27.30
2022-09-03T06:36:23.279Z,27.50
2022-09-03T06:38:53.053Z,27.80
2022-09-03T06:41:25.080Z,27.40
2022-09-03T06:43:55.748Z,27.20
2022-09-03T06:46:24.095Z,27.20
2022-09-03T06:48:51.966Z,27.60
2022-09-03T06:51:20.860Z,27.60
2022-09-03T06:53:49.999Z,27.20
2022-09-03T06:56:18.991Z,26.50
2022-09-03T06:58:48.709Z,26.70
2022-09-03T07:01:19.767Z,27.40
2022-09-03T07:03:49.279Z,28.00
2022-09-03T07:06:18.387Z,28.40
2022-09-03T07:08:46.419Z,28.80
2022-09-03T07:11:15.695Z,28.80
2022-09-03T07:13:44.944Z,29.50
2022-09-03T07:16:14.096Z,30.70
2022-09-03T07:18:46.444Z,29.80
2022-09-03T07:21:15.908Z,28.70
2022-09-03T07:23:43.992Z,28.00
2022-09-03T07:26:13.361Z,28.30
2022-09-03T07:28:42.786Z,28.00
2022-09-03T07:31:12.505Z,27.60
2022-09-03T07:33:40.102Z,27.30
2022-09-03T07:36:11.217Z,27.30
2022-09-03T07:38:38.666Z,27.30
2022-09-03T07:41:08.804Z,27.10
2022-09-03T07:43:40.061Z,26.60
2022-09-03T07:46:07.542Z,26.70
2022-09-03T07:48:37.485Z,27.60
2022-09-03T07:51:05.051Z,27.40
2022-09-03T07:53:34.302Z,27.30
2022-09-03T07:56:02.415Z,26.60
2022-09-03T07:58:30.129Z,26.30
2022-09-03T08:00:58.279Z,25.70
2022-09-03T08:03:26.052Z,25.40
2022-09-03T08:05:53.453Z,24.90
2022-09-03T08:08:20.682Z,24.30
2022-09-03T08:10:49.122Z,24.10
2022-09-03T08:13:16.292Z,23.70
2022-09-03T08:15:43.478Z,23.70
2022-09-03T08:18:11.101Z,23.70
2022-09-03T08:20:38.995Z,23.70
2022-09-03T08:23:09.192Z,24.00
2022-09-03T08:25:36.364Z,24.60
2022-09-03T08:28:04.886Z,24.60
2022-09-03T08:30:32.158Z,24.70
2022-09-03T08:33:04.800Z,25.40
2022-09-03T08:35:34.725Z,25.80
2022-09-03T08:38:05.630Z,26.40
2022-09-03T08:40:38.178Z,26.90
2022-09-03T08:43:17.006Z,27.10
2022-09-03T08:45:44.416Z,27.50
2022-09-03T08:48:21.651Z,27.70
2022-09-03T08:50:56.176Z,27.70
2022-09-03T08:53:29.055Z,27.60
2022-09-03T08:56:02.895Z,28.20
2022-09-03T08:58:35.481Z,28.70
2022-09-03T09:01:11.887Z,29.00
2022-09-03T09:03:48.595Z,29.80
2022-09-03T09:06:23.740Z,30.10
2022-09-03T09:09:05.014Z,29.70
2022-09-03T09:11:47.270Z,29.20
2022-09-03T09:14:22.984Z,28.60
2022-09-03T09:16:57.761Z,29.10
2022-09-03T09:19:39.095Z,29.70
2022-09-03T09:22:11.368Z,29.80
2022-09-03T09:24:42.315Z,29.80
2022-09-03T09:27:14.043Z,29.60
2022-09-03T09:29:48.706Z,29.70
2022-09-03T09:32:19.386Z,29.90
2022-09-03T09:34:52.318Z,29.80
2022-09-03T09:37:20.539Z,30.20
2022-09-03T09:39:56.628Z,31.00
2022-09-03T09:42:24.453Z,31.50
2022-09-03T09:44:53.351Z,31.60
2022-09-03T09:47:27.731Z,31.00
2022-09-03T09:49:56.727Z,30.90
2022-09-03T09:52:26.109Z,30.90
2022-09-03T09:55:05.240Z,31.70
2022-09-03T09:57:32.530Z,32.10
2022-09-03T10:00:12.787Z,31.50
2022-09-03T10:02:42.442Z,31.40
2022-09-03T10:05:15.970Z,31.60
2022-09-03T10:07:43.663Z,32.40
2022-09-03T10:10:17.535Z,33.10
2022-09-03T10:12:49.847Z,32.60
2022-09-03T10:15:31.199Z,32.90
2022-09-03T10:18:03.383Z,33.70
2022-09-03T10:20:39.490Z,33.60
2022-09-03T10:23:17.969Z,33.40
2022-09-03T10:26:04.479Z,32.90
2022-09-03T10:28:33.369Z,32.70
2022-09-03T10:31:17.954Z,32.40
2022-09-03T10:33:49.652Z,32.10
2022-09-03T10:36:23.757Z,32.50
2022-09-03T10:39:01.652Z,32.90
2022-09-03T10:41:41.545Z,32.60
2022-09-03T10:44:48.988Z,32.40
2022-09-03T10:47:37.801Z,32.90
2022-09-03T10:50:17.393Z,32.40
2022-09-03T10:53:07.333Z,31.90
2022-09-03T10:55:47.174Z,31.90
2022-09-03T10:58:34.903Z,31.90
2022-09-03T11:01:09.699Z,32.10
2022-09-03T11:03:47.320Z,32.80
2022-09-03T11:06:20.640Z,33.20
2022-09-03T11:08:55.347Z,33.00
2022-09-03T11:11:28.243Z,32.80
2022-09-03T11:13:59.548Z,32.90
2022-09-03T11:16:31.743Z,33.10
2022-09-03T11:19:05.446Z,32.90
2022-09-03T11:21:35.422Z,32.90
2022-09-03T11:24:09.724Z,33.10
2022-09-03T11:26:37.765Z,33.10
2022-09-03T11:29:13.056Z,32.90
2022-09-03T11:31:57.771Z,32.70
2022-09-03T11:34:33.015Z,33.20
2022-09-03T11:37:18.617Z,32.60
2022-09-03T11:39:53.819Z,32.90
2022-09-03T11:42:37.313Z,33.00
2022-09-03T11:45:24.173Z,33.40
2022-09-03T11:47:52.200Z,33.60
2022-09-03T11:50:25.212Z,33.00
2022-09-03T11:53:07.738Z,33.40
2022-09-03T11:55:53.761Z,33.70
2022-09-03T11:58:25.761Z,33.00
2022-09-03T12:00:55.101Z,32.30
2022-09-03T12:03:28.629Z,32.20
2022-09-03T12:06:14.901Z,32.40
2022-09-03T12:09:06.015Z,32.90
2022-09-03T12:11:40.229Z,32.90
2022-09-03T12:14:17.405Z,33.10
2022-09-03T12:17:10.426Z,33.40
2022-09-03T12:19:41.767Z,33.70
2022-09-03T12:22:15.749Z,33.80
2022-09-03T12:24:45.070Z,33.50
2022-09-03T12:27:18.455Z,33.60
2022-09-03T12:29:59.452Z,33.90
2022-09-03T12:32:27.154Z,33.80
2022-09-03T12:34:54.897Z,33.90
2022-09-03T12:40:21.396Z,33.40
2022-09-03T12:42:49.386Z,33.10
2022-09-03T12:45:23.325Z,33.10
2022-09-03T12:47:53.796Z,33.70
2022-09-03T12:50:23.495Z,34.20
2022-09-03T12:52:54.730Z,33.80
2022-09-03T12:55:29.969Z,33.80
2022-09-03T12:58:03.582Z,34.10
2022-09-03T13:00:34.770Z,34.20
2022-09-03T13:03:06.110Z,34.50
2022-09-03T13:05:36.305Z,33.80
2022-09-03T13:08:08.125Z,33.50
2022-09-03T13:10:38.936Z,33.60
2022-09-03T13:13:20.023Z,33.10
2022-09-03T13:16:04.917Z,33.30
2022-09-03T13:18:43.572Z,33.50
2022-09-03T13:21:19.001Z,33.80
2022-09-03T13:24:00.913Z,34.40
2022-09-03T13:26:36.674Z,34.30
2022-09-03T13:29:33.403Z,33.70
2022-09-03T13:32:08.132Z,33.50
2022-09-03T13:34:40.524Z,33.90
2022-09-03T13:37:23.276Z,34.80
2022-09-03T13:39:55.903Z,34.50
2022-09-03T13:42:28.200Z,34.90
2022-09-03T13:45:00.390Z,34.90
2022-09-03T13:47:34.329Z,34.40
2022-09-03T13:50:22.691Z,34.10
2022-09-03T13:52:56.900Z,34.20
2022-09-03T13:55:31.747Z,34.50
2022-09-03T13:58:05.160Z,34.10
2022-09-03T14:00:38.633Z,34.10
2022-09-03T14:03:13.973Z,34.40
2022-09-03T14:05:54.152Z,34.60
2022-09-03T14:08:28.204Z,34.90
2022-09-03T14:11:04.459Z,34.80
2022-09-03T14:13:47.333Z,34.60
2022-09-03T14:16:29.790Z,34.30
2022-09-03T14:19:00.957Z,33.70
2022-09-03T14:21:31.518Z,33.10
2022-09-03T14:24:07.318Z,32.90
2022-09-03T14:26:39.999Z,33.50
2022-09-03T14:29:16.314Z,33.90
2022-09-03T14:32:24.343Z,34.10
2022-09-03T14:35:13.860Z,34.20
2022-09-03T14:38:00.046Z,34.10
2022-09-03T14:40:36.172Z,33.40
2022-09-03T14:43:16.792Z,33.50
2022-09-03T14:46:10.398Z,33.40
2022-09-03T14:48:51.679Z,33.60
2022-09-03T14:51:35.547Z,33.90
2022-09-03T14:54:18.991Z,34.00
2022-09-03T14:56:52.255Z,33.30
2022-09-03T14:59:39.493Z,33.50
2022-09-03T15:02:59.142Z,34.00
2022-09-03T15:05:41.720Z,33.80
2022-09-03T15:08:14.260Z,33.90
2022-09-03T15:10:46.709Z,34.10
2022-09-03T15:13:19.283Z,33.70
2022-09-03T15:16:02.207Z,34.30
2022-09-03T15:18:42.272Z,34.70
2022-09-03T15:21:24.305Z,34.50
2022-09-03T15:24:02.530Z,33.80
2022-09-03T15:26:51.241Z,32.60
2022-09-03T15:29:37.757Z,32.30
2022-09-03T15:32:17.020Z,31.60
2022-09-03T15:35:02.785Z,30.90
2022-09-03T15:37:37.260Z,30.90
2022-09-03T15:40:10.955Z,30.70
2022-09-03T15:42:38.970Z,30.30
2022-09-03T15:45:21.450Z,30.10
2022-09-03T15:47:55.994Z,30.00
2022-09-03T15:50:33.160Z,29.70
2022-09-03T15:53:05.024Z,29.80
2022-09-03T15:55:37.105Z,29.80
2022-09-03T15:58:18.760Z,30.00
2022-09-03T16:01:00.407Z,29.80
2022-09-03T16:03:47.062Z,29.80
2022-09-03T16:06:25.909Z,30.10
2022-09-03T16:08:55.520Z,29.90
2022-09-03T16:11:33.351Z,30.00
2022-09-03T16:14:07.297Z,30.00
2022-09-03T16:16:52.296Z,29.90
2022-09-03T16:19:26.360Z,29.50
2022-09-03T16:22:00.244Z,29.70
2022-09-03T16:24:35.233Z,29.70
2022-09-03T16:27:09.612Z,29.60
2022-09-03T16:29:38.796Z,29.30
2022-09-03T16:32:22.025Z,29.30
2022-09-03T16:35:03.090Z,29.40
2022-09-03T16:37:35.638Z,29.70
2022-09-03T16:40:15.678Z,29.60
2022-09-03T16:42:47.804Z,29.40
2022-09-03T16:45:27.288Z,29.40
2022-09-03T16:48:12.690Z,29.20
2022-09-03T16:50:58.127Z,29.30
2022-09-03T16:53:35.830Z,29.30
2022-09-03T16:56:24.532Z,29.20
2022-09-03T16:59:00.609Z,29.20
2022-09-03T17:01:43.686Z,29.20
2022-09-03T17:04:41.103Z,29.20
2022-09-03T17:07:29.308Z,29.00
2022-09-03T17:10:07.133Z,29.00
2022-09-03T17:12:42.572Z,29.20
2022-09-03T17:15:31.931Z,29.20
2022-09-03T17:18:12.419Z,29.40
2022-09-03T17:20:49.928Z,29.40
2022-09-03T17:23:38.249Z,29.40
2022-09-03T17:26:12.832Z,29.70
2022-09-03T17:28:56.570Z,29.30
2022-09-03T17:31:37.036Z,29.40
2022-09-03T17:34:15.098Z,29.60
2022-09-03T17:36:59.750Z,29.50
2022-09-03T17:40:01.813Z,29.50
2022-09-03T17:42:39.131Z,29.60
2022-09-03T17:45:15.591Z,29.50
2022-09-03T17:48:07.713Z,29.60
2022-09-03T17:50:45.007Z,29.50
2022-09-03T17:53:19.883Z,29.50
2022-09-03T17:55:56.278Z,29.40
2022-09-03T17:58:28.653Z,29.20
2022-09-03T18:01:02.989Z,29.00
2022-09-03T18:03:39.688Z,28.90
2022-09-03T18:06:12.919Z,28.70
2022-09-03T18:08:48.308Z,28.50
2022-09-03T18:11:21.568Z,28.40
2022-09-03T18:14:00.479Z,28.30
2022-09-03T18:16:29.314Z,28.00
2022-09-03T18:19:02.876Z,27.90
2022-09-03T18:21:52.872Z,27.70
2022-09-03T18:24:50.780Z,27.60
2022-09-03T18:27:46.648Z,27.30
2022-09-03T18:30:35.336Z,27.10
2022-09-03T18:33:20.717Z,27.00
2022-09-03T18:36:06.912Z,26.80
2022-09-03T18:38:55.818Z,26.70
2022-09-03T18:42:11.392Z,26.60
2022-09-03T18:45:22.353Z,26.60
2022-09-03T18:48:24.049Z,26.50
2022-09-03T18:51:23.735Z,26.50
2022-09-03T18:54:21.404Z,26.50
2022-09-03T18:57:09.303Z,26.40
2022-09-03T19:00:09.748Z,26.30
2022-09-03T19:03:09.733Z,26.30
2022-09-03T19:06:07.222Z,26.20
2022-09-03T19:09:00.100Z,26.10
2022-09-03T19:11:51.200Z,26.00
2022-09-03T19:14:50.489Z,25.90
2022-09-03T19:17:42.246Z,25.60
2022-09-03T19:20:33.175Z,25.40
2022-09-03T19:23:18.960Z,25.30
2022-09-03T19:26:04.825Z,25.20
2022-09-03T19:28:55.729Z,25.20
2022-09-03T19:31:54.926Z,25.10
2022-09-03T19:34:57.874Z,25.00
2022-09-03T19:37:51.492Z,25.00
2022-09-03T19:40:57.450Z,25.00
2022-09-03T19:43:53.782Z,24.90
2022-09-03T19:46:50.655Z,24.80
2022-09-03T19:49:50.760Z,24.70
2022-09-03T19:52:44.444Z,24.80
2022-09-03T19:55:38.344Z,24.50
2022-09-03T19:58:42.528Z,24.40
2022-09-03T20:01:30.305Z,24.40
2022-09-03T20:04:22.847Z,24.40
2022-09-03T20:07:08.810Z,24.40
2022-09-03T20:09:58.860Z,24.30
2022-09-03T20:12:32.790Z,24.20
2022-09-03T20:15:02.375Z,24.00
2022-09-03T20:17:38.495Z,24.00
2022-09-03T20:20:16.127Z,24.10
2022-09-03T20:22:52.427Z,24.10
2022-09-03T20:25:46.765Z,24.10
2022-09-03T20:28:37.381Z,24.10
2022-09-03T20:31:11.363Z,24.10
2022-09-03T20:33:51.308Z,24.10
2022-09-03T20:36:29.956Z,24.10
2022-09-03T20:39:27.829Z,24.10
2022-09-03T20:42:02.842Z,24.00
2022-09-03T20:44:58.726Z,24.00
2022-09-03T20:48:01.502Z,24.00
2022-09-03T20:50:46.788Z,23.90
2022-09-03T20:53:34.476Z,23.80
2022-09-03T20:56:10.644Z,23.70
2022-09-03T20:58:44.386Z,23.70
2022-09-03T21:01:22.715Z,23.70
2022-09-03T21:04:04.150Z,23.60
2022-09-03T21:06:38.835Z,23.60
2022-09-03T21:09:20.362Z,23.50
2022-09-03T21:12:02.515Z,23.50
2022-09-03T21:14:34.997Z,23.50
2022-09-03T21:17:10.514Z,23.40
2022-09-03T21:19:57.029Z,23.30
2022-09-03T21:22:29.142Z,23.20
2022-09-03T21:24:57.665Z,23.20
2022-09-03T21:27:26.624Z,23.20
2022-09-03T21:29:58.173Z,23.20
2022-09-03T21:32:30.965Z,23.30
2022-09-03T21:35:03.968Z,23.20
2022-09-03T21:37:31.835Z,23.20
2022-09-03T21:39:59.407Z,23.20
2022-09-03T21:42:32.943Z,23.20
2022-09-03T21:45:07.663Z,23.10
2022-09-03T21:47:40.847Z,23.00
2022-09-03T21:50:17.103Z,22.80
2022-09-03T21:52:55.523Z,22.70
2022-09-03T21:55:32.656Z,22.60
2022-09-03T21:58:08.312Z,22.50
2022-09-03T22:00:35.338Z,22.50
2022-09-03T22:03:06.289Z,22.40
2022-09-03T22:05:41.504Z,22.40
2022-09-03T22:08:18.339Z,22.30
2022-09-03T22:10:51.141Z,22.30
2022-09-03T22:13:23.416Z,22.50
2022-09-03T22:15:51.332Z,22.40
2022-09-03T22:18:28.688Z,22.40
2022-09-03T22:21:03.246Z,22.30
2022-09-03T22:23:42.895Z,22.40
2022-09-03T22:26:26.881Z,22.30
2022-09-03T22:29:03.999Z,22.20
2022-09-03T22:31:38.255Z,22.20
2022-09-03T22:34:12.095Z,22.00
2022-09-03T22:36:47.079Z,22.00
2022-09-03T22:39:24.800Z,22.20
2022-09-03T22:42:16.044Z,21.80
2022-09-03T22:44:50.953Z,21.70
2022-09-03T22:47:25.916Z,21.60
2022-09-03T22:50:03.109Z,21.60
2022-09-03T22:52:34.699Z,21.60
2022-09-03T22:55:13.844Z,21.80
2022-09-03T22:57:47.880Z,21.90
2022-09-03T23:00:15.888Z,21.90
2022-09-03T23:02:45.936Z,22.00
2022-09-03T23:05:40.970Z,21.80
2022-09-03T23:08:13.101Z,21.90
2022-09-03T23:10:55.316Z,21.90
2022-09-03T23:13:26.654Z,21.80
2022-09-03T23:16:07.674Z,21.60
2022-09-03T23:18:36.705Z,21.50
2022-09-03T23:21:15.152Z,21.40
2022-09-03T23:23:46.918Z,21.50
2022-09-03T23:26:23.374Z,21.30
2022-09-03T23:28:57.504Z,21.40
2022-09-03T23:31:27.388Z,21.40
2022-09-03T23:33:56.065Z,21.50
2022-09-03T23:37:31.680Z,21.60
2022-09-03T23:39:53.493Z,21.60
2022-09-03T23:42:32.979Z,21.70
2022-09-03T23:45:05.428Z,21.70
2022-09-03T23:47:45.880Z,21.80
2022-09-03T23:50:30.973Z,21.80
2022-09-03T23:53:19.256Z,21.80
2022-09-03T23:55:56.184Z,21.70
2022-09-03T23:58:34.285Z,21.60
